Taconite, MN

12:45 AM CDT on October 01, 2014 (GMT -0500)
Grand Rapids-Itasca County-Newstrom Field | Change Station
CLOSE
Current Station
Airport
Location: Grand Rapids,
Elevation: 1355 ft
Nearby Weather Stations

Elev 1355 ft 47.21 °N, 93.51 °W | Updated 10 minutes ago

Overcast
Overcast
46 °F
Feels Like 41 °F
N
12
Wind Variable Wind from SE
Gusts 17 mph

Today
High -- | Low -- °F
--% Chance of Precip.
Yesterday
High -- | Low -- °F
Precip. -- in
7:12 AM 6:52 PM
Waxing Crescent, 44% visible
Pressure 29.84 in
Visibility 10.0 miles
Clouds Scattered Clouds 8000 ft
Overcast 10000 ft
Windchill 41 °F
Dew Point 41 °F
Humidity 81%
Rainfall 0.00 in
Snow Depth Not available.
UV 0 out of 12
Pollen 2.30 out of 12
Air Quality Not available.
Flu Activity Not available.
METAR KGPZ 010535Z AUTO 14010G15KT 10SM SCT080 OVC100 08/05 A2984 RMK AO1

More Conditions Fewer Conditions

Pressure 29.84 in
Visibility 10.0 miles
Clouds Scattered Clouds 8000 ft
Overcast 10000 ft
Windchill 41 °F
Dew Point 41 °F
Humidity 81%
Rainfall 0.00 in
Snow Depth Not available.
UV 0 out of 12
Pollen 2.30 out of 12
Air Quality Not available.
Flu Activity Not available.
METAR KGPZ 010535Z AUTO 14010G15KT 10SM SCT080 OVC100 08/05 A2984 RMK AO1

More Conditions Fewer Conditions

10-Day Weather Forecast

Almanac

Astronomy

Oct. 01, 2014 Rise Set
Actual Time 7:12 AM CDT 6:52 PM CDT
Civil Twilight 6:41 AM CDT 7:23 PM CDT
Nautical Twilight 6:06 AM CDT 7:58 PM CDT
Astronomical Twilight 5:30 AM CDT 8:35 PM CDT
Moon 2:31 PM CDT No Moon Set
Length of Visible Light 12h 41m
Length of Day
11h 40m
Tomorrow will be 3m 22s shorter.
Waxing Crescent, 44% of the Moon is Illuminated
Today
Waxing Crescent
Oct 1
First Quarter
Oct 8
Full
Oct 15
Last Quarter
Oct 23
New

Today's Extremes

State Highs State Lows

Community

WunderPhotos

Upload Photos

1,757,875 photos uploaded!

Nearby

Snow Depth

Station Depth Elevation
No new snow has been reported.

Earthquake Activity

City Distance Mag. Time & Date
No recent earthquake activity has been reported nearby.
Minimum magnitude displayed is 2.5.

Coastal Water Temperatures

Place Temperature
No Stations Reporting

Nearby Weather Stations